sensor_id;sensor_type;location;lat;lon;timestamp;P1;durP1;ratioP1;P2;durP2;ratioP2
3587;SDS011;1808;53.596;9.972;2022-12-18T00:01:39;23.63;;;11.57;;
3587;SDS011;1808;53.596;9.972;2022-12-18T00:04:07;21.70;;;11.45;;
3587;SDS011;1808;53.596;9.972;2022-12-18T00:06:41;29.38;;;11.57;;
3587;SDS011;1808;53.596;9.972;2022-12-18T00:09:08;30.40;;;13.05;;
3587;SDS011;1808;53.596;9.972;2022-12-18T00:11:35;26.65;;;12.55;;
3587;SDS011;1808;53.596;9.972;2022-12-18T00:14:01;26.60;;;11.57;;
3587;SDS011;1808;53.596;9.972;2022-12-18T00:16:28;26.45;;;11.90;;
3587;SDS011;1808;53.596;9.972;2022-12-18T00:18:55;30.17;;;12.50;;
3587;SDS011;1808;53.596;9.972;2022-12-18T00:21:29;22.92;;;12.25;;
3587;SDS011;1808;53.596;9.972;2022-12-18T00:23:57;30.27;;;12.00;;
3587;SDS011;1808;53.596;9.972;2022-12-18T00:26:24;25.90;;;13.30;;
3587;SDS011;1808;53.596;9.972;2022-12-18T00:28:52;25.20;;;12.75;;
3587;SDS011;1808;53.596;9.972;2022-12-18T00:31:21;23.65;;;12.32;;
3587;SDS011;1808;53.596;9.972;2022-12-18T00:33:48;23.45;;;11.20;;
3587;SDS011;1808;53.596;9.972;2022-12-18T00:36:15;22.00;;;9.65;;
3587;SDS011;1808;53.596;9.972;2022-12-18T00:38:46;24.90;;;12.85;;
3587;SDS011;1808;53.596;9.972;2022-12-18T00:41:13;24.15;;;11.20;;
3587;SDS011;1808;53.596;9.972;2022-12-18T00:44:01;24.48;;;10.40;;
3587;SDS011;1808;53.596;9.972;2022-12-18T00:46:26;23.17;;;11.20;;
3587;SDS011;1808;53.596;9.972;2022-12-18T00:48:53;23.88;;;11.35;;
3587;SDS011;1808;53.596;9.972;2022-12-18T00:51:19;23.58;;;11.38;;
3587;SDS011;1808;53.596;9.972;2022-12-18T00:53:47;23.33;;;12.45;;
3587;SDS011;1808;53.596;9.972;2022-12-18T00:56:13;31.15;;;13.65;;
3587;SDS011;1808;53.596;9.972;2022-12-18T00:58:40;25.83;;;11.80;;
3587;SDS011;1808;53.596;9.972;2022-12-18T01:01:06;26.08;;;12.90;;
3587;SDS011;1808;53.596;9.972;2022-12-18T01:03:33;29.88;;;13.15;;
3587;SDS011;1808;53.596;9.972;2022-12-18T01:06:04;23.65;;;11.93;;
3587;SDS011;1808;53.596;9.972;2022-12-18T01:08:32;26.00;;;12.05;;
3587;SDS011;1808;53.596;9.972;2022-12-18T01:10:59;21.15;;;10.63;;
3587;SDS011;1808;53.596;9.972;2022-12-18T01:13:26;20.55;;;11.63;;
3587;SDS011;1808;53.596;9.972;2022-12-18T01:15:53;27.70;;;12.43;;
3587;SDS011;1808;53.596;9.972;2022-12-18T01:18:19;24.80;;;12.30;;
3587;SDS011;1808;53.596;9.972;2022-12-18T01:20:46;26.77;;;12.77;;
3587;SDS011;1808;53.596;9.972;2022-12-18T01:23:12;26.35;;;13.27;;
3587;SDS011;1808;53.596;9.972;2022-12-18T01:25:39;25.35;;;10.75;;
3587;SDS011;1808;53.596;9.972;2022-12-18T01:28:06;22.25;;;10.80;;
3587;SDS011;1808;53.596;9.972;2022-12-18T01:30:33;27.60;;;12.05;;
3587;SDS011;1808;53.596;9.972;2022-12-18T01:32:59;29.77;;;11.52;;
3587;SDS011;1808;53.596;9.972;2022-12-18T01:35:26;28.60;;;11.80;;
3587;SDS011;1808;53.596;9.972;2022-12-18T01:37:54;23.00;;;12.70;;
3587;SDS011;1808;53.596;9.972;2022-12-18T01:40:20;26.65;;;12.93;;
3587;SDS011;1808;53.596;9.972;2022-12-18T01:42:49;26.98;;;12.40;;
3587;SDS011;1808;53.596;9.972;2022-12-18T01:45:24;27.35;;;12.93;;
3587;SDS011;1808;53.596;9.972;2022-12-18T01:47:52;26.90;;;12.05;;
3587;SDS011;1808;53.596;9.972;2022-12-18T01:50:20;22.90;;;11.57;;
3587;SDS011;1808;53.596;9.972;2022-12-18T01:52:49;28.00;;;13.10;;
3587;SDS011;1808;53.596;9.972;2022-12-18T01:55:18;26.70;;;12.93;;
3587;SDS011;1808;53.596;9.972;2022-12-18T01:57:45;19.63;;;9.70;;
3587;SDS011;1808;53.596;9.972;2022-12-18T02:00:14;22.42;;;11.88;;
3587;SDS011;1808;53.596;9.972;2022-12-18T02:02:43;28.83;;;14.23;;
3587;SDS011;1808;53.596;9.972;2022-12-18T02:05:10;27.60;;;12.98;;
3587;SDS011;1808;53.596;9.972;2022-12-18T02:07:41;25.17;;;12.40;;
3587;SDS011;1808;53.596;9.972;2022-12-18T02:10:12;21.40;;;11.07;;
3587;SDS011;1808;53.596;9.972;2022-12-18T02:12:42;25.60;;;10.30;;
3587;SDS011;1808;53.596;9.972;2022-12-18T02:15:13;25.20;;;11.32;;
3587;SDS011;1808;53.596;9.972;2022-12-18T02:17:45;23.27;;;11.90;;
3587;SDS011;1808;53.596;9.972;2022-12-18T02:20:16;25.77;;;10.60;;
3587;SDS011;1808;53.596;9.972;2022-12-18T02:22:50;28.15;;;12.07;;
3587;SDS011;1808;53.596;9.972;2022-12-18T02:25:29;27.60;;;11.88;;
3587;SDS011;1808;53.596;9.972;2022-12-18T02:28:09;25.52;;;10.60;;
3587;SDS011;1808;53.596;9.972;2022-12-18T02:30:37;25.50;;;10.85;;
3587;SDS011;1808;53.596;9.972;2022-12-18T02:33:04;25.50;;;12.32;;
3587;SDS011;1808;53.596;9.972;2022-12-18T02:35:33;27.58;;;11.68;;
3587;SDS011;1808;53.596;9.972;2022-12-18T02:38:00;24.92;;;11.27;;
3587;SDS011;1808;53.596;9.972;2022-12-18T02:40:28;30.90;;;12.52;;
3587;SDS011;1808;53.596;9.972;2022-12-18T02:42:54;25.73;;;10.90;;
3587;SDS011;1808;53.596;9.972;2022-12-18T02:45:22;26.45;;;11.98;;
3587;SDS011;1808;53.596;9.972;2022-12-18T02:47:49;21.45;;;10.20;;
3587;SDS011;1808;53.596;9.972;2022-12-18T02:50:16;23.20;;;11.20;;
3587;SDS011;1808;53.596;9.972;2022-12-18T02:52:48;33.28;;;12.48;;
3587;SDS011;1808;53.596;9.972;2022-12-18T02:55:23;30.50;;;13.48;;
3587;SDS011;1808;53.596;9.972;2022-12-18T02:57:55;28.50;;;10.75;;
3587;SDS011;1808;53.596;9.972;2022-12-18T03:00:27;23.23;;;11.18;;
3587;SDS011;1808;53.596;9.972;2022-12-18T03:02:56;23.00;;;10.40;;
3587;SDS011;1808;53.596;9.972;2022-12-18T03:05:27;25.02;;;12.23;;
3587;SDS011;1808;53.596;9.972;2022-12-18T03:07:57;26.38;;;12.90;;
3587;SDS011;1808;53.596;9.972;2022-12-18T03:10:27;29.98;;;13.90;;
3587;SDS011;1808;53.596;9.972;2022-12-18T03:12:56;23.60;;;11.57;;
3587;SDS011;1808;53.596;9.972;2022-12-18T03:15:28;25.98;;;12.05;;
3587;SDS011;1808;53.596;9.972;2022-12-18T03:17:56;26.50;;;12.50;;
3587;SDS011;1808;53.596;9.972;2022-12-18T03:20:25;26.60;;;11.50;;
3587;SDS011;1808;53.596;9.972;2022-12-18T03:22:53;31.23;;;12.43;;
3587;SDS011;1808;53.596;9.972;2022-12-18T03:25:23;22.65;;;10.93;;
3587;SDS011;1808;53.596;9.972;2022-12-18T03:27:53;29.00;;;11.32;;
3587;SDS011;1808;53.596;9.972;2022-12-18T03:30:21;27.23;;;11.68;;
3587;SDS011;1808;53.596;9.972;2022-12-18T03:32:50;33.35;;;11.68;;
3587;SDS011;1808;53.596;9.972;2022-12-18T03:35:22;21.15;;;10.82;;
3587;SDS011;1808;53.596;9.972;2022-12-18T03:37:52;24.67;;;11.32;;
3587;SDS011;1808;53.596;9.972;2022-12-18T03:40:19;32.92;;;12.23;;
3587;SDS011;1808;53.596;9.972;2022-12-18T03:42:47;28.65;;;11.43;;
3587;SDS011;1808;53.596;9.972;2022-12-18T03:45:18;34.35;;;13.98;;
3587;SDS011;1808;53.596;9.972;2022-12-18T03:47:53;29.65;;;12.95;;
3587;SDS011;1808;53.596;9.972;2022-12-18T03:50:26;27.45;;;10.90;;
3587;SDS011;1808;53.596;9.972;2022-12-18T03:52:59;23.65;;;10.73;;
3587;SDS011;1808;53.596;9.972;2022-12-18T03:55:30;33.70;;;12.50;;
3587;SDS011;1808;53.596;9.972;2022-12-18T03:57:58;29.55;;;11.57;;
3587;SDS011;1808;53.596;9.972;2022-12-18T04:00:25;26.73;;;12.63;;
3587;SDS011;1808;53.596;9.972;2022-12-18T04:02:54;25.25;;;11.32;;
3587;SDS011;1808;53.596;9.972;2022-12-18T04:05:21;23.27;;;9.77;;
3587;SDS011;1808;53.596;9.972;2022-12-18T04:07:49;24.10;;;10.38;;
3587;SDS011;1808;53.596;9.972;2022-12-18T04:10:16;34.78;;;11.70;;
3587;SDS011;1808;53.596;9.972;2022-12-18T04:12:42;23.00;;;9.90;;
3587;SDS011;1808;53.596;9.972;2022-12-18T04:15:09;26.92;;;11.95;;
3587;SDS011;1808;53.596;9.972;2022-12-18T04:17:36;28.50;;;13.55;;
3587;SDS011;1808;53.596;9.972;2022-12-18T04:20:05;26.58;;;12.00;;
3587;SDS011;1808;53.596;9.972;2022-12-18T04:22:32;36.00;;;13.13;;
3587;SDS011;1808;53.596;9.972;2022-12-18T04:24:58;19.40;;;10.15;;
3587;SDS011;1808;53.596;9.972;2022-12-18T04:27:25;21.38;;;10.00;;
3587;SDS011;1808;53.596;9.972;2022-12-18T04:29:51;32.67;;;11.35;;
3587;SDS011;1808;53.596;9.972;2022-12-18T04:32:17;28.13;;;13.45;;
3587;SDS011;1808;53.596;9.972;2022-12-18T04:34:44;34.35;;;12.38;;
3587;SDS011;1808;53.596;9.972;2022-12-18T04:37:11;27.45;;;11.82;;
3587;SDS011;1808;53.596;9.972;2022-12-18T04:39:38;24.30;;;11.40;;
3587;SDS011;1808;53.596;9.972;2022-12-18T04:42:04;31.08;;;12.90;;
3587;SDS011;1808;53.596;9.972;2022-12-18T04:44:30;26.55;;;12.30;;
3587;SDS011;1808;53.596;9.972;2022-12-18T04:46:57;39.17;;;13.57;;
3587;SDS011;1808;53.596;9.972;2022-12-18T04:49:23;30.17;;;12.25;;
3587;SDS011;1808;53.596;9.972;2022-12-18T04:51:49;34.85;;;14.93;;
3587;SDS011;1808;53.596;9.972;2022-12-18T04:54:18;27.85;;;12.68;;
3587;SDS011;1808;53.596;9.972;2022-12-18T04:56:46;25.27;;;11.18;;
3587;SDS011;1808;53.596;9.972;2022-12-18T04:59:12;29.70;;;13.13;;
3587;SDS011;1808;53.596;9.972;2022-12-18T05:01:38;21.95;;;10.32;;
3587;SDS011;1808;53.596;9.972;2022-12-18T05:04:05;27.42;;;11.65;;
3587;SDS011;1808;53.596;9.972;2022-12-18T05:06:31;40.85;;;16.63;;
3587;SDS011;1808;53.596;9.972;2022-12-18T05:08:58;31.15;;;12.52;;
3587;SDS011;1808;53.596;9.972;2022-12-18T05:11:26;33.25;;;14.38;;
3587;SDS011;1808;53.596;9.972;2022-12-18T05:13:52;32.83;;;14.15;;
3587;SDS011;1808;53.596;9.972;2022-12-18T05:16:21;38.80;;;14.20;;
3587;SDS011;1808;53.596;9.972;2022-12-18T05:18:47;30.88;;;12.40;;
3587;SDS011;1808;53.596;9.972;2022-12-18T05:21:14;34.55;;;13.95;;
3587;SDS011;1808;53.596;9.972;2022-12-18T05:23:40;36.15;;;12.57;;
3587;SDS011;1808;53.596;9.972;2022-12-18T05:26:07;34.88;;;14.18;;
3587;SDS011;1808;53.596;9.972;2022-12-18T05:28:35;30.85;;;12.55;;
3587;SDS011;1808;53.596;9.972;2022-12-18T05:31:02;22.73;;;10.75;;
3587;SDS011;1808;53.596;9.972;2022-12-18T05:33:29;36.72;;;14.48;;
3587;SDS011;1808;53.596;9.972;2022-12-18T05:35:57;22.63;;;10.57;;
3587;SDS011;1808;53.596;9.972;2022-12-18T05:38:27;33.67;;;13.35;;
3587;SDS011;1808;53.596;9.972;2022-12-18T05:40:54;35.92;;;12.75;;
3587;SDS011;1808;53.596;9.972;2022-12-18T05:43:21;29.70;;;11.73;;
3587;SDS011;1808;53.596;9.972;2022-12-18T05:45:49;36.28;;;13.10;;
3587;SDS011;1808;53.596;9.972;2022-12-18T05:48:16;21.30;;;9.43;;
3587;SDS011;1808;53.596;9.972;2022-12-18T05:50:43;38.53;;;11.95;;
3587;SDS011;1808;53.596;9.972;2022-12-18T05:53:11;37.47;;;13.88;;
3587;SDS011;1808;53.596;9.972;2022-12-18T05:55:39;34.90;;;12.63;;
3587;SDS011;1808;53.596;9.972;2022-12-18T05:58:06;30.92;;;12.23;;
3587;SDS011;1808;53.596;9.972;2022-12-18T06:00:34;37.53;;;14.95;;
3587;SDS011;1808;53.596;9.972;2022-12-18T06:03:06;33.78;;;13.38;;
3587;SDS011;1808;53.596;9.972;2022-12-18T06:05:34;30.38;;;12.82;;
3587;SDS011;1808;53.596;9.972;2022-12-18T06:08:01;33.17;;;12.63;;
3587;SDS011;1808;53.596;9.972;2022-12-18T06:10:27;29.45;;;11.77;;
3587;SDS011;1808;53.596;9.972;2022-12-18T06:12:54;32.00;;;12.45;;
3587;SDS011;1808;53.596;9.972;2022-12-18T06:15:20;25.73;;;10.85;;
3587;SDS011;1808;53.596;9.972;2022-12-18T06:17:46;34.42;;;13.07;;
3587;SDS011;1808;53.596;9.972;2022-12-18T06:20:14;29.60;;;12.93;;
3587;SDS011;1808;53.596;9.972;2022-12-18T06:22:40;34.75;;;13.30;;
3587;SDS011;1808;53.596;9.972;2022-12-18T06:25:07;39.03;;;13.57;;
3587;SDS011;1808;53.596;9.972;2022-12-18T06:27:34;39.90;;;14.23;;
3587;SDS011;1808;53.596;9.972;2022-12-18T06:30:00;42.88;;;14.45;;
3587;SDS011;1808;53.596;9.972;2022-12-18T06:32:27;39.97;;;16.52;;
3587;SDS011;1808;53.596;9.972;2022-12-18T06:34:53;41.13;;;14.48;;
3587;SDS011;1808;53.596;9.972;2022-12-18T06:37:21;39.60;;;16.52;;
3587;SDS011;1808;53.596;9.972;2022-12-18T06:39:49;38.05;;;15.88;;
3587;SDS011;1808;53.596;9.972;2022-12-18T06:42:16;38.38;;;15.13;;
3587;SDS011;1808;53.596;9.972;2022-12-18T06:44:42;42.70;;;13.45;;
3587;SDS011;1808;53.596;9.972;2022-12-18T06:47:08;44.10;;;16.05;;
3587;SDS011;1808;53.596;9.972;2022-12-18T06:49:35;32.75;;;13.05;;
3587;SDS011;1808;53.596;9.972;2022-12-18T06:52:01;36.65;;;14.02;;
3587;SDS011;1808;53.596;9.972;2022-12-18T06:54:29;39.50;;;12.38;;
3587;SDS011;1808;53.596;9.972;2022-12-18T06:56:56;44.65;;;15.05;;
3587;SDS011;1808;53.596;9.972;2022-12-18T06:59:22;60.65;;;14.73;;
3587;SDS011;1808;53.596;9.972;2022-12-18T07:01:48;50.65;;;17.23;;
3587;SDS011;1808;53.596;9.972;2022-12-18T07:04:14;48.67;;;17.38;;
3587;SDS011;1808;53.596;9.972;2022-12-18T07:06:41;44.67;;;16.45;;
3587;SDS011;1808;53.596;9.972;2022-12-18T07:09:07;57.95;;;17.17;;
3587;SDS011;1808;53.596;9.972;2022-12-18T07:11:35;43.97;;;15.30;;
3587;SDS011;1808;53.596;9.972;2022-12-18T07:14:01;39.38;;;15.48;;
3587;SDS011;1808;53.596;9.972;2022-12-18T07:16:27;45.35;;;16.60;;
3587;SDS011;1808;53.596;9.972;2022-12-18T07:18:54;43.97;;;18.10;;
3587;SDS011;1808;53.596;9.972;2022-12-18T07:21:21;43.90;;;18.17;;
3587;SDS011;1808;53.596;9.972;2022-12-18T07:23:48;60.72;;;18.85;;
3587;SDS011;1808;53.596;9.972;2022-12-18T07:26:16;56.33;;;18.02;;
3587;SDS011;1808;53.596;9.972;2022-12-18T07:28:45;47.17;;;18.45;;
3587;SDS011;1808;53.596;9.972;2022-12-18T07:31:13;45.83;;;16.80;;
3587;SDS011;1808;53.596;9.972;2022-12-18T07:33:41;51.03;;;16.77;;
3587;SDS011;1808;53.596;9.972;2022-12-18T07:36:07;48.00;;;18.40;;
3587;SDS011;1808;53.596;9.972;2022-12-18T07:38:36;47.15;;;17.17;;
3587;SDS011;1808;53.596;9.972;2022-12-18T07:41:03;52.00;;;17.25;;
3587;SDS011;1808;53.596;9.972;2022-12-18T07:43:31;44.75;;;17.17;;
3587;SDS011;1808;53.596;9.972;2022-12-18T07:45:59;46.53;;;17.02;;
3587;SDS011;1808;53.596;9.972;2022-12-18T07:48:25;53.67;;;19.98;;
3587;SDS011;1808;53.596;9.972;2022-12-18T07:50:51;42.92;;;18.70;;
3587;SDS011;1808;53.596;9.972;2022-12-18T07:53:18;41.53;;;16.25;;
3587;SDS011;1808;53.596;9.972;2022-12-18T07:55:44;51.72;;;18.63;;
3587;SDS011;1808;53.596;9.972;2022-12-18T07:58:10;47.75;;;18.55;;
3587;SDS011;1808;53.596;9.972;2022-12-18T08:00:37;27.95;;;12.00;;
3587;SDS011;1808;53.596;9.972;2022-12-18T08:03:05;43.15;;;16.95;;
3587;SDS011;1808;53.596;9.972;2022-12-18T08:05:32;46.00;;;16.35;;
3587;SDS011;1808;53.596;9.972;2022-12-18T08:07:58;57.88;;;17.67;;
3587;SDS011;1808;53.596;9.972;2022-12-18T08:10:24;53.22;;;19.17;;
3587;SDS011;1808;53.596;9.972;2022-12-18T08:12:51;40.33;;;16.85;;
3587;SDS011;1808;53.596;9.972;2022-12-18T08:15:17;37.95;;;15.15;;
3587;SDS011;1808;53.596;9.972;2022-12-18T08:17:44;58.00;;;19.88;;
3587;SDS011;1808;53.596;9.972;2022-12-18T08:20:12;39.55;;;15.35;;
3587;SDS011;1808;53.596;9.972;2022-12-18T08:22:39;57.67;;;23.25;;
3587;SDS011;1808;53.596;9.972;2022-12-18T08:25:06;52.78;;;17.33;;
3587;SDS011;1808;53.596;9.972;2022-12-18T08:27:33;51.70;;;19.75;;
3587;SDS011;1808;53.596;9.972;2022-12-18T08:30:00;47.30;;;17.90;;
3587;SDS011;1808;53.596;9.972;2022-12-18T08:32:27;61.30;;;21.27;;
3587;SDS011;1808;53.596;9.972;2022-12-18T08:34:54;50.25;;;17.75;;
3587;SDS011;1808;53.596;9.972;2022-12-18T08:37:21;58.83;;;23.30;;
3587;SDS011;1808;53.596;9.972;2022-12-18T08:39:47;53.10;;;19.00;;
3587;SDS011;1808;53.596;9.972;2022-12-18T08:42:14;54.72;;;21.65;;
3587;SDS011;1808;53.596;9.972;2022-12-18T08:44:58;62.97;;;20.80;;
3587;SDS011;1808;53.596;9.972;2022-12-18T08:47:24;51.75;;;21.23;;
3587;SDS011;1808;53.596;9.972;2022-12-18T08:49:51;54.85;;;20.38;;
3587;SDS011;1808;53.596;9.972;2022-12-18T08:52:17;61.92;;;22.58;;
3587;SDS011;1808;53.596;9.972;2022-12-18T08:54:45;54.95;;;25.20;;
3587;SDS011;1808;53.596;9.972;2022-12-18T08:57:11;75.05;;;22.13;;
3587;SDS011;1808;53.596;9.972;2022-12-18T08:59:38;55.08;;;19.88;;
3587;SDS011;1808;53.596;9.972;2022-12-18T09:02:04;51.90;;;18.35;;
3587;SDS011;1808;53.596;9.972;2022-12-18T09:04:30;55.70;;;20.48;;
3587;SDS011;1808;53.596;9.972;2022-12-18T09:06:57;50.97;;;18.35;;
3587;SDS011;1808;53.596;9.972;2022-12-18T09:09:23;65.53;;;22.50;;
3587;SDS011;1808;53.596;9.972;2022-12-18T09:11:51;65.10;;;23.00;;
3587;SDS011;1808;53.596;9.972;2022-12-18T09:14:17;58.95;;;19.80;;
3587;SDS011;1808;53.596;9.972;2022-12-18T09:16:43;51.55;;;18.33;;
3587;SDS011;1808;53.596;9.972;2022-12-18T09:19:10;48.50;;;17.25;;
3587;SDS011;1808;53.596;9.972;2022-12-18T09:21:36;54.65;;;21.73;;
3587;SDS011;1808;53.596;9.972;2022-12-18T09:24:03;52.97;;;19.30;;
3587;SDS011;1808;53.596;9.972;2022-12-18T09:26:31;43.25;;;17.42;;
3587;SDS011;1808;53.596;9.972;2022-12-18T09:28:58;46.20;;;17.42;;
3587;SDS011;1808;53.596;9.972;2022-12-18T09:31:25;48.35;;;18.13;;
3587;SDS011;1808;53.596;9.972;2022-12-18T09:33:51;49.00;;;19.48;;
3587;SDS011;1808;53.596;9.972;2022-12-18T09:36:18;44.33;;;17.50;;
3587;SDS011;1808;53.596;9.972;2022-12-18T09:38:44;46.60;;;17.67;;
3587;SDS011;1808;53.596;9.972;2022-12-18T09:41:15;44.22;;;19.85;;
3587;SDS011;1808;53.596;9.972;2022-12-18T09:43:50;41.00;;;15.02;;
3587;SDS011;1808;53.596;9.972;2022-12-18T09:46:19;46.38;;;17.48;;
3587;SDS011;1808;53.596;9.972;2022-12-18T09:48:54;36.78;;;15.45;;
3587;SDS011;1808;53.596;9.972;2022-12-18T09:51:24;37.70;;;16.05;;
3587;SDS011;1808;53.596;9.972;2022-12-18T09:53:53;42.75;;;17.60;;
3587;SDS011;1808;53.596;9.972;2022-12-18T09:56:22;47.88;;;21.67;;
3587;SDS011;1808;53.596;9.972;2022-12-18T09:58:53;35.40;;;14.63;;
3587;SDS011;1808;53.596;9.972;2022-12-18T10:01:25;40.07;;;15.70;;
3587;SDS011;1808;53.596;9.972;2022-12-18T10:03:52;41.72;;;17.77;;
3587;SDS011;1808;53.596;9.972;2022-12-18T10:06:20;38.92;;;16.98;;
3587;SDS011;1808;53.596;9.972;2022-12-18T10:08:51;38.92;;;15.07;;
3587;SDS011;1808;53.596;9.972;2022-12-18T10:11:29;38.00;;;16.05;;
3587;SDS011;1808;53.596;9.972;2022-12-18T10:14:01;49.58;;;17.88;;
3587;SDS011;1808;53.596;9.972;2022-12-18T10:16:35;52.17;;;18.80;;
3587;SDS011;1808;53.596;9.972;2022-12-18T10:19:11;36.92;;;16.88;;
3587;SDS011;1808;53.596;9.972;2022-12-18T10:21:48;43.67;;;18.83;;
3587;SDS011;1808;53.596;9.972;2022-12-18T10:24:20;38.78;;;14.68;;
3587;SDS011;1808;53.596;9.972;2022-12-18T10:26:50;41.50;;;16.48;;
3587;SDS011;1808;53.596;9.972;2022-12-18T10:29:18;33.13;;;14.57;;
3587;SDS011;1808;53.596;9.972;2022-12-18T10:31:46;37.72;;;15.25;;
3587;SDS011;1808;53.596;9.972;2022-12-18T10:34:13;32.55;;;15.85;;
3587;SDS011;1808;53.596;9.972;2022-12-18T10:36:42;44.83;;;17.70;;
3587;SDS011;1808;53.596;9.972;2022-12-18T10:39:15;34.30;;;14.38;;
3587;SDS011;1808;53.596;9.972;2022-12-18T10:41:47;40.10;;;15.80;;
3587;SDS011;1808;53.596;9.972;2022-12-18T10:44:17;37.78;;;16.65;;
3587;SDS011;1808;53.596;9.972;2022-12-18T10:46:46;41.22;;;15.82;;
3587;SDS011;1808;53.596;9.972;2022-12-18T10:49:18;46.55;;;17.55;;
3587;SDS011;1808;53.596;9.972;2022-12-18T10:51:46;36.97;;;15.05;;
3587;SDS011;1808;53.596;9.972;2022-12-18T10:54:14;42.63;;;19.48;;
3587;SDS011;1808;53.596;9.972;2022-12-18T10:56:42;36.63;;;13.90;;
3587;SDS011;1808;53.596;9.972;2022-12-18T10:59:09;30.67;;;14.15;;
3587;SDS011;1808;53.596;9.972;2022-12-18T11:01:45;37.72;;;15.23;;
3587;SDS011;1808;53.596;9.972;2022-12-18T11:04:16;38.95;;;16.95;;
3587;SDS011;1808;53.596;9.972;2022-12-18T11:06:52;38.25;;;15.32;;
3587;SDS011;1808;53.596;9.972;2022-12-18T11:09:21;39.92;;;16.40;;
3587;SDS011;1808;53.596;9.972;2022-12-18T11:11:48;32.13;;;14.10;;
3587;SDS011;1808;53.596;9.972;2022-12-18T11:14:17;40.90;;;16.63;;
3587;SDS011;1808;53.596;9.972;2022-12-18T11:16:48;38.00;;;13.93;;
3587;SDS011;1808;53.596;9.972;2022-12-18T11:19:19;38.00;;;15.32;;
3587;SDS011;1808;53.596;9.972;2022-12-18T11:21:55;38.83;;;17.50;;
3587;SDS011;1808;53.596;9.972;2022-12-18T11:24:23;45.78;;;16.67;;
3587;SDS011;1808;53.596;9.972;2022-12-18T11:26:52;39.42;;;15.38;;
3587;SDS011;1808;53.596;9.972;2022-12-18T11:29:22;36.00;;;15.38;;
3587;SDS011;1808;53.596;9.972;2022-12-18T11:31:51;31.95;;;15.35;;
3587;SDS011;1808;53.596;9.972;2022-12-18T11:34:40;43.30;;;16.85;;
3587;SDS011;1808;53.596;9.972;2022-12-18T11:37:07;35.88;;;15.23;;
3587;SDS011;1808;53.596;9.972;2022-12-18T11:39:35;42.05;;;17.77;;
3587;SDS011;1808;53.596;9.972;2022-12-18T11:42:04;43.38;;;16.38;;
3587;SDS011;1808;53.596;9.972;2022-12-18T11:44:35;38.22;;;16.40;;
3587;SDS011;1808;53.596;9.972;2022-12-18T11:47:11;34.00;;;15.20;;
3587;SDS011;1808;53.596;9.972;2022-12-18T11:49:41;37.63;;;16.58;;
3587;SDS011;1808;53.596;9.972;2022-12-18T11:52:14;33.75;;;15.20;;
3587;SDS011;1808;53.596;9.972;2022-12-18T11:54:42;43.50;;;17.13;;
3587;SDS011;1808;53.596;9.972;2022-12-18T11:57:10;43.42;;;19.55;;
3587;SDS011;1808;53.596;9.972;2022-12-18T11:59:44;34.92;;;15.82;;
3587;SDS011;1808;53.596;9.972;2022-12-18T12:02:23;39.28;;;14.73;;
3587;SDS011;1808;53.596;9.972;2022-12-18T12:05:12;41.53;;;16.98;;
3587;SDS011;1808;53.596;9.972;2022-12-18T12:07:46;31.30;;;13.43;;
3587;SDS011;1808;53.596;9.972;2022-12-18T12:10:24;37.83;;;16.90;;
3587;SDS011;1808;53.596;9.972;2022-12-18T12:13:06;35.72;;;15.25;;
3587;SDS011;1808;53.596;9.972;2022-12-18T12:15:46;47.28;;;17.00;;
3587;SDS011;1808;53.596;9.972;2022-12-18T12:18:30;40.88;;;18.00;;
3587;SDS011;1808;53.596;9.972;2022-12-18T12:21:01;43.42;;;17.20;;
3587;SDS011;1808;53.596;9.972;2022-12-18T12:23:33;35.38;;;15.13;;
3587;SDS011;1808;53.596;9.972;2022-12-18T12:26:06;39.47;;;16.92;;
3587;SDS011;1808;53.596;9.972;2022-12-18T12:28:42;44.80;;;19.70;;
3587;SDS011;1808;53.596;9.972;2022-12-18T12:31:27;43.53;;;15.25;;
3587;SDS011;1808;53.596;9.972;2022-12-18T12:34:04;34.78;;;13.93;;
3587;SDS011;1808;53.596;9.972;2022-12-18T12:36:35;41.10;;;16.63;;
3587;SDS011;1808;53.596;9.972;2022-12-18T12:39:07;44.15;;;16.75;;
3587;SDS011;1808;53.596;9.972;2022-12-18T12:41:37;39.53;;;17.05;;
3587;SDS011;1808;53.596;9.972;2022-12-18T12:44:27;40.20;;;13.82;;
3587;SDS011;1808;53.596;9.972;2022-12-18T12:46:57;33.55;;;14.02;;
3587;SDS011;1808;53.596;9.972;2022-12-18T12:51:58;36.55;;;14.93;;
3587;SDS011;1808;53.596;9.972;2022-12-18T12:54:29;34.03;;;14.02;;
3587;SDS011;1808;53.596;9.972;2022-12-18T12:56:59;36.30;;;15.63;;
3587;SDS011;1808;53.596;9.972;2022-12-18T12:59:30;35.47;;;12.98;;
3587;SDS011;1808;53.596;9.972;2022-12-18T13:01:59;46.40;;;18.77;;
3587;SDS011;1808;53.596;9.972;2022-12-18T13:04:32;40.08;;;16.83;;
3587;SDS011;1808;53.596;9.972;2022-12-18T13:07:03;43.58;;;15.48;;
3587;SDS011;1808;53.596;9.972;2022-12-18T13:09:32;35.80;;;14.43;;
3587;SDS011;1808;53.596;9.972;2022-12-18T13:12:01;43.33;;;16.40;;
3587;SDS011;1808;53.596;9.972;2022-12-18T13:14:46;34.20;;;14.48;;
3587;SDS011;1808;53.596;9.972;2022-12-18T13:17:24;37.85;;;15.32;;
3587;SDS011;1808;53.596;9.972;2022-12-18T13:20:07;43.50;;;15.88;;
3587;SDS011;1808;53.596;9.972;2022-12-18T13:22:36;41.13;;;15.57;;
3587;SDS011;1808;53.596;9.972;2022-12-18T13:28:05;42.03;;;17.13;;
3587;SDS011;1808;53.596;9.972;2022-12-18T13:30:41;30.23;;;12.57;;
3587;SDS011;1808;53.596;9.972;2022-12-18T13:33:38;38.80;;;16.00;;
3587;SDS011;1808;53.596;9.972;2022-12-18T13:36:14;37.28;;;16.17;;
3587;SDS011;1808;53.596;9.972;2022-12-18T13:38:44;42.67;;;15.30;;
3587;SDS011;1808;53.596;9.972;2022-12-18T13:41:26;36.75;;;14.07;;
3587;SDS011;1808;53.596;9.972;2022-12-18T13:43:54;34.90;;;14.48;;
3587;SDS011;1808;53.596;9.972;2022-12-18T13:46:25;44.45;;;15.70;;
3587;SDS011;1808;53.596;9.972;2022-12-18T13:48:55;43.60;;;14.80;;
3587;SDS011;1808;53.596;9.972;2022-12-18T13:51:25;37.85;;;13.05;;
3587;SDS011;1808;53.596;9.972;2022-12-18T13:53:54;42.33;;;14.65;;
3587;SDS011;1808;53.596;9.972;2022-12-18T13:56:24;46.30;;;16.92;;
3587;SDS011;1808;53.596;9.972;2022-12-18T13:59:12;46.88;;;17.33;;
3587;SDS011;1808;53.596;9.972;2022-12-18T14:01:44;37.78;;;14.88;;
3587;SDS011;1808;53.596;9.972;2022-12-18T14:04:16;39.20;;;14.53;;
3587;SDS011;1808;53.596;9.972;2022-12-18T14:06:47;39.38;;;15.20;;
3587;SDS011;1808;53.596;9.972;2022-12-18T14:09:15;57.30;;;19.20;;
3587;SDS011;1808;53.596;9.972;2022-12-18T14:11:46;49.58;;;18.23;;
3587;SDS011;1808;53.596;9.972;2022-12-18T14:14:13;47.42;;;17.48;;
3587;SDS011;1808;53.596;9.972;2022-12-18T14:16:41;38.95;;;14.95;;
3587;SDS011;1808;53.596;9.972;2022-12-18T14:19:08;48.60;;;18.67;;
3587;SDS011;1808;53.596;9.972;2022-12-18T14:21:38;47.25;;;17.35;;
3587;SDS011;1808;53.596;9.972;2022-12-18T14:24:13;56.05;;;20.27;;
3587;SDS011;1808;53.596;9.972;2022-12-18T14:26:42;47.97;;;17.13;;
3587;SDS011;1808;53.596;9.972;2022-12-18T14:29:20;37.55;;;13.82;;
3587;SDS011;1808;53.596;9.972;2022-12-18T14:32:04;45.70;;;17.52;;
3587;SDS011;1808;53.596;9.972;2022-12-18T14:34:32;43.72;;;16.48;;
3587;SDS011;1808;53.596;9.972;2022-12-18T14:36:59;44.70;;;15.98;;
3587;SDS011;1808;53.596;9.972;2022-12-18T14:39:27;41.22;;;14.63;;
3587;SDS011;1808;53.596;9.972;2022-12-18T14:41:54;46.85;;;14.75;;
3587;SDS011;1808;53.596;9.972;2022-12-18T14:44:21;44.58;;;18.58;;
3587;SDS011;1808;53.596;9.972;2022-12-18T14:46:48;45.83;;;16.52;;
3587;SDS011;1808;53.596;9.972;2022-12-18T14:49:19;46.63;;;15.82;;
3587;SDS011;1808;53.596;9.972;2022-12-18T14:51:50;42.20;;;16.70;;
3587;SDS011;1808;53.596;9.972;2022-12-18T14:54:19;54.75;;;20.77;;
3587;SDS011;1808;53.596;9.972;2022-12-18T14:56:48;58.10;;;22.15;;
3587;SDS011;1808;53.596;9.972;2022-12-18T14:59:18;51.97;;;19.55;;
3587;SDS011;1808;53.596;9.972;2022-12-18T15:01:47;53.85;;;18.45;;
3587;SDS011;1808;53.596;9.972;2022-12-18T15:04:23;45.03;;;14.88;;
3587;SDS011;1808;53.596;9.972;2022-12-18T15:07:02;52.25;;;20.08;;